Time;durP1;ratioP1;P1;durP2;ratioP2;P2;SDS_P1;SDS_P2;PMS_P1;PMS_P2;Temp;Humidity;BMP_temperature;BMP_pressure;BME280_temperature;BME280_humidity;BME280_pressure;Samples;Min_cycle;Max_cycle;Signal;HPM_P1;HPM_P2
2023/05/05 00:02:14;;;;;;;7.35;5.82;;;;;;;;;;5162730;27;20059;-59
2023/05/05 00:04:40;;;;;;;9.43;6.03;;;;;;;;;;5164771;27;20103;-60
2023/05/05 00:07:06;;;;;;;9.10;6.10;;;;;;;;;;5165983;27;20055;-59
2023/05/05 00:09:33;;;;;;;9.18;5.95;;;;;;;;;;5165258;27;20528;-59
2023/05/05 00:11:59;;;;;;;8.93;6.80;;;;;;;;;;5153296;27;20047;-56
2023/05/05 00:14:25;;;;;;;10.27;6.40;;;;;;;;;;5153127;27;20058;-59
2023/05/05 00:16:52;;;;;;;7.68;6.40;;;;;;;;;;5160694;27;20042;-60
2023/05/05 00:19:18;;;;;;;11.50;7.07;;;;;;;;;;5165589;27;20051;-59
2023/05/05 00:21:45;;;;;;;11.30;6.53;;;;;;;;;;5164554;27;20402;-60
2023/05/05 00:24:11;;;;;;;6.38;5.50;;;;;;;;;;5161593;27;20054;-59
2023/05/05 00:26:37;;;;;;;8.82;6.13;;;;;;;;;;5135292;27;20051;-59
2023/05/05 00:29:04;;;;;;;10.00;5.88;;;;;;;;;;5145462;27;20059;-59
2023/05/05 00:31:30;;;;;;;8.43;6.35;;;;;;;;;;5158758;27;20552;-59
2023/05/05 00:33:57;;;;;;;10.25;5.95;;;;;;;;;;5160718;27;20055;-59
2023/05/05 00:36:23;;;;;;;7.93;6.63;;;;;;;;;;5161992;27;20043;-59
2023/05/05 00:38:50;;;;;;;9.70;6.43;;;;;;;;;;5157175;27;20047;-59
2023/05/05 00:41:16;;;;;;;8.90;6.25;;;;;;;;;;5154879;27;20079;-59
2023/05/05 00:43:43;;;;;;;11.63;6.78;;;;;;;;;;5164380;27;20107;-60
2023/05/05 00:46:23;;;;;;;7.35;6.07;;;;;;;;;;5164677;27;20510;-60
2023/05/05 00:48:49;;;;;;;10.10;7.00;;;;;;;;;;5160243;27;20051;-60
2023/05/05 00:51:16;;;;;;;13.82;6.20;;;;;;;;;;5165589;27;20508;-59
2023/05/05 00:53:43;;;;;;;8.30;6.20;;;;;;;;;;5156109;27;20142;-59
2023/05/05 00:56:14;;;;;;;9.30;6.18;;;;;;;;;;5156363;27;20050;-59
2023/05/05 00:58:41;;;;;;;8.77;6.88;;;;;;;;;;5165423;27;20185;-60
2023/05/05 01:01:09;;;;;;;15.48;7.07;;;;;;;;;;5165653;27;20085;-60
2023/05/05 01:03:40;;;;;;;7.75;6.10;;;;;;;;;;5161523;27;22003;-60
2023/05/05 01:06:07;;;;;;;8.27;6.68;;;;;;;;;;5152751;27;20050;-59
2023/05/05 01:08:36;;;;;;;12.80;7.18;;;;;;;;;;5163731;27;20051;-59
2023/05/05 01:11:07;;;;;;;8.00;6.88;;;;;;;;;;5164029;27;20043;-59
2023/05/05 01:13:36;;;;;;;11.02;7.10;;;;;;;;;;5159886;27;20102;-59
2023/05/05 01:16:21;;;;;;;10.07;7.53;;;;;;;;;;5158848;27;20081;-58
2023/05/05 01:18:51;;;;;;;10.23;7.13;;;;;;;;;;5142618;27;20062;-59
2023/05/05 01:21:25;;;;;;;10.15;7.47;;;;;;;;;;5155236;27;20137;-60
2023/05/05 01:24:11;;;;;;;10.32;8.63;;;;;;;;;;5164778;27;20047;-60
2023/05/05 01:26:52;;;;;;;11.07;8.63;;;;;;;;;;5151107;27;20138;-58
2023/05/05 01:29:37;;;;;;;12.98;8.80;;;;;;;;;;5147425;27;20051;-60
2023/05/05 01:32:09;;;;;;;11.52;8.82;;;;;;;;;;5162632;27;20051;-59
2023/05/05 01:34:39;;;;;;;10.15;9.07;;;;;;;;;;5148121;27;20055;-60
2023/05/05 01:37:17;;;;;;;11.95;8.90;;;;;;;;;;5154755;27;20055;-59
2023/05/05 01:39:45;;;;;;;12.60;9.30;;;;;;;;;;5165068;27;20086;-59
2023/05/05 01:42:14;;;;;;;13.00;9.38;;;;;;;;;;5164573;27;20137;-60
2023/05/05 01:44:42;;;;;;;20.90;9.75;;;;;;;;;;5152127;27;20633;-59
2023/05/05 01:47:13;;;;;;;14.95;10.13;;;;;;;;;;5159526;27;20968;-60
2023/05/05 01:49:42;;;;;;;11.38;9.15;;;;;;;;;;5157814;27;20050;-59
2023/05/05 01:52:09;;;;;;;10.77;8.73;;;;;;;;;;5166126;27;20051;-60
2023/05/05 01:54:37;;;;;;;10.52;8.80;;;;;;;;;;5166164;27;20104;-59
2023/05/05 01:57:04;;;;;;;12.55;9.23;;;;;;;;;;5161236;27;20051;-60
2023/05/05 01:59:31;;;;;;;11.88;9.32;;;;;;;;;;5165672;27;20080;-60
2023/05/05 02:01:59;;;;;;;13.55;9.68;;;;;;;;;;5166289;27;20078;-59
2023/05/05 02:04:27;;;;;;;10.63;8.32;;;;;;;;;;5168367;27;20047;-59
2023/05/05 02:06:55;;;;;;;17.15;9.18;;;;;;;;;;5164892;27;20057;-60
2023/05/05 02:09:23;;;;;;;9.43;8.13;;;;;;;;;;5160704;27;20104;-60
2023/05/05 02:11:50;;;;;;;11.30;8.50;;;;;;;;;;5166534;27;20051;-58
2023/05/05 02:14:18;;;;;;;12.55;8.52;;;;;;;;;;5149070;27;20055;-59
2023/05/05 02:16:45;;;;;;;8.77;7.78;;;;;;;;;;5162322;27;20337;-60
2023/05/05 02:19:13;;;;;;;10.18;8.77;;;;;;;;;;5167926;27;20535;-58
2023/05/05 02:21:40;;;;;;;9.75;8.27;;;;;;;;;;5160444;27;20494;-59
2023/05/05 02:24:06;;;;;;;10.77;7.88;;;;;;;;;;5152807;27;20485;-61
2023/05/05 02:26:34;;;;;;;11.43;8.45;;;;;;;;;;5148913;27;20050;-59
2023/05/05 02:29:02;;;;;;;9.35;8.25;;;;;;;;;;5167810;27;20055;-59
2023/05/05 02:31:31;;;;;;;9.65;7.90;;;;;;;;;;5167785;27;20062;-59
2023/05/05 02:34:00;;;;;;;10.10;8.13;;;;;;;;;;5168578;27;20090;-59
2023/05/05 02:36:29;;;;;;;8.93;7.05;;;;;;;;;;5149513;27;20050;-60
2023/05/05 02:38:57;;;;;;;8.70;7.45;;;;;;;;;;5166473;27;20057;-59
2023/05/05 02:41:26;;;;;;;8.05;7.18;;;;;;;;;;5149923;27;20050;-59
2023/05/05 02:43:53;;;;;;;8.85;7.13;;;;;;;;;;5168083;27;20046;-59
2023/05/05 02:46:20;;;;;;;8.95;6.63;;;;;;;;;;5166525;27;20591;-60
2023/05/05 02:48:46;;;;;;;8.48;6.43;;;;;;;;;;5161119;27;20054;-58
2023/05/05 02:51:13;;;;;;;15.45;6.30;;;;;;;;;;5166690;27;20747;-60
2023/05/05 02:53:39;;;;;;;8.75;5.82;;;;;;;;;;5165535;27;20051;-57
2023/05/05 02:56:19;;;;;;;10.77;5.78;;;;;;;;;;5166526;27;20143;-58
2023/05/05 02:58:50;;;;;;;6.65;5.55;;;;;;;;;;5156942;27;20560;-59
2023/05/05 03:01:26;;;;;;;6.43;4.90;;;;;;;;;;5168004;27;20054;-59
2023/05/05 03:03:59;;;;;;;5.70;5.10;;;;;;;;;;5166747;27;20054;-59
2023/05/05 03:06:27;;;;;;;6.05;4.68;;;;;;;;;;5168586;27;20169;-59
2023/05/05 03:09:01;;;;;;;6.00;4.38;;;;;;;;;;5166230;27;20047;-59
2023/05/05 03:11:31;;;;;;;5.97;4.07;;;;;;;;;;5167338;27;20043;-56
2023/05/05 03:14:03;;;;;;;5.65;4.40;;;;;;;;;;5167117;27;20073;-60
2023/05/05 03:16:30;;;;;;;4.85;3.75;;;;;;;;;;5147918;27;20046;-56
2023/05/05 03:18:58;;;;;;;7.97;4.05;;;;;;;;;;5164676;27;20046;-58
2023/05/05 03:21:25;;;;;;;6.78;4.22;;;;;;;;;;5151506;27;20046;-58
2023/05/05 03:23:52;;;;;;;4.45;4.00;;;;;;;;;;5165902;27;20059;-60
2023/05/05 03:26:18;;;;;;;4.35;3.55;;;;;;;;;;5151728;27;20047;-60
2023/05/05 03:28:45;;;;;;;5.75;3.95;;;;;;;;;;5167598;27;20523;-59
2023/05/05 03:31:11;;;;;;;8.35;4.60;;;;;;;;;;5165933;27;20050;-55
2023/05/05 03:33:38;;;;;;;5.82;4.32;;;;;;;;;;5165798;27;20062;-59
2023/05/05 03:36:04;;;;;;;4.32;3.45;;;;;;;;;;5166118;27;20062;-59
2023/05/05 03:38:31;;;;;;;5.75;3.72;;;;;;;;;;5140772;27;20212;-59
2023/05/05 03:40:59;;;;;;;5.22;3.88;;;;;;;;;;5162628;27;20046;-60
2023/05/05 03:43:26;;;;;;;6.63;4.22;;;;;;;;;;5164957;27;20093;-59
2023/05/05 03:45:52;;;;;;;4.97;3.78;;;;;;;;;;5165750;27;20457;-60
2023/05/05 03:48:19;;;;;;;4.10;3.70;;;;;;;;;;5166204;27;20134;-60
2023/05/05 03:50:45;;;;;;;5.13;4.28;;;;;;;;;;5155270;27;20055;-59
2023/05/05 03:53:11;;;;;;;5.85;4.15;;;;;;;;;;5160049;27;20073;-59
2023/05/05 03:55:38;;;;;;;5.88;4.38;;;;;;;;;;5163535;27;20051;-59
2023/05/05 03:58:04;;;;;;;6.13;3.83;;;;;;;;;;5166263;27;20054;-59
2023/05/05 04:00:31;;;;;;;8.95;4.13;;;;;;;;;;5167125;27;20257;-59
2023/05/05 04:02:57;;;;;;;6.82;4.30;;;;;;;;;;5160049;27;20540;-57
2023/05/05 04:05:24;;;;;;;5.78;4.13;;;;;;;;;;5164261;27;20183;-59
2023/05/05 04:07:51;;;;;;;4.88;3.78;;;;;;;;;;5159128;27;20086;-59
2023/05/05 04:10:17;;;;;;;6.50;4.15;;;;;;;;;;5160381;27;20057;-59
2023/05/05 04:12:44;;;;;;;6.72;3.90;;;;;;;;;;5166172;27;20461;-59
2023/05/05 04:15:10;;;;;;;6.97;4.53;;;;;;;;;;5149449;27;20050;-59
2023/05/05 04:17:36;;;;;;;8.85;4.50;;;;;;;;;;5162544;27;21966;-58
2023/05/05 04:20:03;;;;;;;5.78;4.90;;;;;;;;;;5157956;27;20050;-58
2023/05/05 04:22:29;;;;;;;7.70;4.72;;;;;;;;;;5145612;27;20078;-59
2023/05/05 04:24:56;;;;;;;7.93;4.72;;;;;;;;;;5163481;27;20058;-59
2023/05/05 04:27:24;;;;;;;8.40;5.20;;;;;;;;;;5151275;27;20080;-58
2023/05/05 04:29:51;;;;;;;4.95;4.35;;;;;;;;;;5164553;27;20562;-59
2023/05/05 04:32:17;;;;;;;6.10;4.28;;;;;;;;;;5166364;27;20095;-59
2023/05/05 04:34:44;;;;;;;6.10;4.68;;;;;;;;;;5166512;27;20199;-60
2023/05/05 04:37:10;;;;;;;6.93;4.85;;;;;;;;;;5163932;27;20082;-57
2023/05/05 04:39:37;;;;;;;6.47;4.72;;;;;;;;;;5151685;27;20051;-59
2023/05/05 04:42:03;;;;;;;7.70;5.03;;;;;;;;;;5162663;27;20059;-58
2023/05/05 04:44:30;;;;;;;5.72;4.60;;;;;;;;;;5167005;27;20527;-59
2023/05/05 04:46:56;;;;;;;5.70;4.90;;;;;;;;;;5163401;27;20066;-57
2023/05/05 04:49:23;;;;;;;7.30;5.07;;;;;;;;;;5166558;27;20538;-58
2023/05/05 04:51:49;;;;;;;7.03;5.13;;;;;;;;;;5141306;27;20529;-58
2023/05/05 04:54:16;;;;;;;9.88;4.88;;;;;;;;;;5159274;27;20088;-59
2023/05/05 04:56:42;;;;;;;9.05;5.18;;;;;;;;;;5164192;27;20464;-59
2023/05/05 04:59:08;;;;;;;7.60;5.30;;;;;;;;;;5166260;27;20497;-60
2023/05/05 05:01:35;;;;;;;5.97;5.05;;;;;;;;;;5153543;27;20051;-59
2023/05/05 05:04:04;;;;;;;10.07;5.38;;;;;;;;;;5160678;27;20540;-61
2023/05/05 05:06:31;;;;;;;5.43;4.88;;;;;;;;;;5162148;27;20135;-60
2023/05/05 05:08:57;;;;;;;8.82;5.53;;;;;;;;;;5166227;27;20556;-56
2023/05/05 05:11:24;;;;;;;13.13;5.55;;;;;;;;;;5165612;27;20046;-57
2023/05/05 05:13:51;;;;;;;11.25;6.60;;;;;;;;;;5166413;27;20050;-60
2023/05/05 05:16:18;;;;;;;9.88;5.70;;;;;;;;;;5179645;27;20078;-57
2023/05/05 05:18:44;;;;;;;9.82;6.47;;;;;;;;;;5167545;27;20141;-62
2023/05/05 05:21:11;;;;;;;10.90;6.40;;;;;;;;;;5167407;27;20054;-59
2023/05/05 05:23:37;;;;;;;8.27;6.30;;;;;;;;;;5162715;27;20119;-58
2023/05/05 05:26:04;;;;;;;12.10;6.93;;;;;;;;;;5168297;27;20047;-59
2023/05/05 05:28:31;;;;;;;9.18;6.97;;;;;;;;;;5166477;27;20115;-59
2023/05/05 05:30:57;;;;;;;13.45;6.65;;;;;;;;;;5163007;27;20090;-59
2023/05/05 05:33:24;;;;;;;13.50;7.00;;;;;;;;;;5165535;27;20051;-59
2023/05/05 05:35:51;;;;;;;10.95;7.35;;;;;;;;;;5163615;27;20054;-58
2023/05/05 05:38:18;;;;;;;13.50;7.60;;;;;;;;;;5154340;27;20151;-59
2023/05/05 05:40:44;;;;;;;13.23;8.05;;;;;;;;;;5166443;27;20057;-57
2023/05/05 05:43:10;;;;;;;13.23;7.75;;;;;;;;;;5165752;27;20824;-59
2023/05/05 05:45:37;;;;;;;12.30;7.88;;;;;;;;;;5165357;27;20443;-59
2023/05/05 05:48:03;;;;;;;12.25;7.70;;;;;;;;;;5162364;27;20051;-59
2023/05/05 05:50:30;;;;;;;16.27;8.48;;;;;;;;;;5166310;27;20179;-59
2023/05/05 05:52:56;;;;;;;13.68;8.32;;;;;;;;;;5166985;27;20105;-59
2023/05/05 05:55:22;;;;;;;13.10;8.82;;;;;;;;;;5166816;27;20061;-59
2023/05/05 05:57:49;;;;;;;16.40;9.38;;;;;;;;;;5162601;27;20050;-58
2023/05/05 06:00:15;;;;;;;14.88;9.57;;;;;;;;;;5165020;27;20145;-59
2023/05/05 06:02:41;;;;;;;17.90;9.30;;;;;;;;;;5156031;27;20130;-59
2023/05/05 06:05:08;;;;;;;14.30;9.52;;;;;;;;;;5150248;27;20059;-58
2023/05/05 06:07:34;;;;;;;14.07;9.43;;;;;;;;;;5167233;27;20051;-59
2023/05/05 06:10:01;;;;;;;14.68;8.93;;;;;;;;;;5165608;27;20074;-59
2023/05/05 06:12:44;;;;;;;12.27;8.70;;;;;;;;;;5166110;27;20051;-59
2023/05/05 06:15:10;;;;;;;13.57;8.45;;;;;;;;;;5166045;27;20082;-59
2023/05/05 06:17:36;;;;;;;11.70;7.80;;;;;;;;;;5162414;27;20058;-60
2023/05/05 06:20:04;;;;;;;12.13;7.50;;;;;;;;;;5161593;27;20537;-58
2023/05/05 06:22:30;;;;;;;12.48;8.38;;;;;;;;;;5146562;27;20059;-58
2023/05/05 06:24:56;;;;;;;13.18;6.72;;;;;;;;;;5164256;27;20066;-48
2023/05/05 06:27:23;;;;;;;11.48;7.63;;;;;;;;;;5154726;27;20076;-61
2023/05/05 06:29:50;;;;;;;12.48;7.60;;;;;;;;;;5154312;27;20154;-60
2023/05/05 06:32:16;;;;;;;14.77;8.65;;;;;;;;;;5161522;27;20053;-61
2023/05/05 06:34:43;;;;;;;12.70;7.95;;;;;;;;;;5162403;27;20059;-60
2023/05/05 06:37:10;;;;;;;12.60;8.15;;;;;;;;;;5162175;27;20286;-59
2023/05/05 06:39:36;;;;;;;11.38;7.53;;;;;;;;;;5163734;27;20047;-58
2023/05/05 06:42:03;;;;;;;10.82;6.82;;;;;;;;;;5159334;27;20050;-60
2023/05/05 06:44:29;;;;;;;12.27;8.25;;;;;;;;;;5148435;27;20054;-58
2023/05/05 06:46:56;;;;;;;17.48;8.05;;;;;;;;;;5130278;27;20475;-60
2023/05/05 06:49:23;;;;;;;13.30;7.50;;;;;;;;;;5158397;27;20673;-61
2023/05/05 06:51:49;;;;;;;13.68;7.35;;;;;;;;;;5165502;27;20104;-60
2023/05/05 06:54:16;;;;;;;14.20;6.43;;;;;;;;;;5145814;27;20082;-60
2023/05/05 06:56:42;;;;;;;11.55;6.35;;;;;;;;;;5140755;27;20046;-60
2023/05/05 06:59:09;;;;;;;10.20;6.22;;;;;;;;;;5164640;27;20051;-59
2023/05/05 07:01:35;;;;;;;10.77;6.57;;;;;;;;;;5161931;27;20626;-59
2023/05/05 07:04:01;;;;;;;13.85;7.22;;;;;;;;;;5151581;27;20106;-60
2023/05/05 07:06:28;;;;;;;12.55;7.38;;;;;;;;;;5167639;27;20047;-57
2023/05/05 07:08:55;;;;;;;10.32;6.60;;;;;;;;;;5145785;27;20049;-58
2023/05/05 07:11:21;;;;;;;9.50;6.57;;;;;;;;;;5153806;27;20050;-58
2023/05/05 07:13:48;;;;;;;13.90;7.00;;;;;;;;;;5169476;27;20062;-60
2023/05/05 07:16:14;;;;;;;12.90;6.60;;;;;;;;;;5166669;27;20049;-60
2023/05/05 07:18:41;;;;;;;12.48;6.53;;;;;;;;;;5163011;27;20050;-60
2023/05/05 07:21:07;;;;;;;11.02;5.82;;;;;;;;;;5165879;27;20055;-60
2023/05/05 07:23:33;;;;;;;9.77;5.65;;;;;;;;;;5164626;27;20043;-59
2023/05/05 07:25:59;;;;;;;9.75;5.50;;;;;;;;;;5148851;27;20570;-60
2023/05/05 07:28:26;;;;;;;9.18;5.63;;;;;;;;;;5159690;27;20043;-60
2023/05/05 07:30:53;;;;;;;10.88;5.93;;;;;;;;;;5160442;27;20054;-58
2023/05/05 07:33:19;;;;;;;9.48;6.03;;;;;;;;;;5161047;27;20051;-57
2023/05/05 07:35:46;;;;;;;13.82;6.18;;;;;;;;;;5165622;27;20542;-60
2023/05/05 07:38:12;;;;;;;8.85;5.28;;;;;;;;;;5165561;27;20127;-59
2023/05/05 07:40:39;;;;;;;11.68;6.47;;;;;;;;;;5164493;27;20436;-59
2023/05/05 07:43:05;;;;;;;9.07;5.47;;;;;;;;;;5164819;27;20055;-60
2023/05/05 07:45:31;;;;;;;12.40;5.80;;;;;;;;;;5165091;27;20050;-58
2023/05/05 07:47:58;;;;;;;17.48;7.18;;;;;;;;;;5164160;27;20059;-61
2023/05/05 07:50:25;;;;;;;12.30;6.07;;;;;;;;;;5163078;27;20047;-58
2023/05/05 07:52:52;;;;;;;7.50;4.80;;;;;;;;;;5163330;27;20123;-59
2023/05/05 07:55:35;;;;;;;8.18;4.80;;;;;;;;;;5163960;27;20082;-58
2023/05/05 07:58:02;;;;;;;8.27;4.75;;;;;;;;;;5167460;27;20166;-60
2023/05/05 08:00:29;;;;;;;8.48;4.30;;;;;;;;;;5167666;27;20566;-57
2023/05/05 08:02:55;;;;;;;10.25;4.80;;;;;;;;;;5150767;27;20375;-59
2023/05/05 08:05:22;;;;;;;8.63;4.63;;;;;;;;;;5158891;27;20054;-61
2023/05/05 08:07:48;;;;;;;6.35;4.10;;;;;;;;;;5165076;27;20701;-61
2023/05/05 08:10:14;;;;;;;7.72;3.97;;;;;;;;;;5164826;27;20757;-60
2023/05/05 08:12:41;;;;;;;8.38;3.72;;;;;;;;;;5163409;27;20134;-61
2023/05/05 08:15:07;;;;;;;4.68;3.15;;;;;;;;;;5165446;27;20057;-60
2023/05/05 08:17:44;;;;;;;4.68;3.05;;;;;;;;;;5158239;27;20051;-60
2023/05/05 08:20:11;;;;;;;4.22;3.00;;;;;;;;;;5167442;27;20119;-60
2023/05/05 08:22:37;;;;;;;6.72;2.67;;;;;;;;;;5164306;27;20058;-59
2023/05/05 08:25:04;;;;;;;7.45;3.38;;;;;;;;;;5164722;27;20182;-60
2023/05/05 08:27:34;;;;;;;8.43;3.30;;;;;;;;;;5168257;27;20058;-59
2023/05/05 08:30:01;;;;;;;6.15;2.88;;;;;;;;;;5164047;27;20055;-60
2023/05/05 08:32:27;;;;;;;5.53;2.55;;;;;;;;;;5167342;27;20053;-59
2023/05/05 08:34:55;;;;;;;5.88;2.63;;;;;;;;;;5150384;27;20058;-60
2023/05/05 08:37:21;;;;;;;10.75;3.25;;;;;;;;;;5166767;27;20055;-60
2023/05/05 08:39:48;;;;;;;6.20;2.60;;;;;;;;;;5162828;27;20452;-60
2023/05/05 08:42:14;;;;;;;8.48;2.60;;;;;;;;;;5164903;27;20109;-60
2023/05/05 08:44:59;;;;;;;3.20;2.40;;;;;;;;;;5166425;27;20057;-60
2023/05/05 08:47:25;;;;;;;4.55;1.70;;;;;;;;;;5167010;27;20145;-60
2023/05/05 08:49:52;;;;;;;2.92;1.92;;;;;;;;;;5164713;27;20584;-59
2023/05/05 08:52:22;;;;;;;5.07;2.15;;;;;;;;;;5164851;27;20050;-60
2023/05/05 08:54:59;;;;;;;4.07;1.92;;;;;;;;;;5161649;27;20065;-59
2023/05/05 08:57:30;;;;;;;3.95;2.20;;;;;;;;;;5164904;27;20050;-60
2023/05/05 08:59:57;;;;;;;3.75;2.25;;;;;;;;;;5165771;27;20050;-59
2023/05/05 09:02:27;;;;;;;4.47;2.10;;;;;;;;;;5166869;27;20078;-61
2023/05/05 09:04:54;;;;;;;5.72;2.35;;;;;;;;;;5149311;27;20050;-59
2023/05/05 09:07:21;;;;;;;3.10;2.10;;;;;;;;;;5160697;27;20131;-58
2023/05/05 09:09:48;;;;;;;6.00;2.42;;;;;;;;;;5162731;27;20320;-59
2023/05/05 09:12:16;;;;;;;5.95;2.75;;;;;;;;;;5165423;27;20054;-60
2023/05/05 09:14:44;;;;;;;4.55;2.33;;;;;;;;;;5161925;27;20527;-59
2023/05/05 09:17:24;;;;;;;3.63;2.20;;;;;;;;;;5165966;27;20046;-60
2023/05/05 09:20:09;;;;;;;5.97;2.88;;;;;;;;;;5165590;27;20597;-60
2023/05/05 09:22:37;;;;;;;4.60;2.40;;;;;;;;;;5164265;27;20109;-60
2023/05/05 09:25:04;;;;;;;2.70;2.15;;;;;;;;;;5164503;27;20143;-61
2023/05/05 09:27:35;;;;;;;4.38;2.40;;;;;;;;;;5162371;27;20608;-58
2023/05/05 09:30:02;;;;;;;4.22;2.50;;;;;;;;;;5166096;27;20102;-60
2023/05/05 09:32:28;;;;;;;3.50;2.25;;;;;;;;;;5156971;27;20515;-58
2023/05/05 09:35:00;;;;;;;6.30;2.85;;;;;;;;;;5164075;27;20426;-59
2023/05/05 09:37:27;;;;;;;6.10;2.67;;;;;;;;;;5161534;27;20063;-61
2023/05/05 09:39:54;;;;;;;6.07;2.95;;;;;;;;;;5153011;27;20828;-60
2023/05/05 09:42:21;;;;;;;4.05;2.22;;;;;;;;;;5144823;27;20055;-60
2023/05/05 09:44:47;;;;;;;5.40;2.90;;;;;;;;;;5158722;27;20219;-58
2023/05/05 09:47:14;;;;;;;4.57;2.97;;;;;;;;;;5160149;27;20046;-60
2023/05/05 09:49:58;;;;;;;4.80;2.80;;;;;;;;;;5157814;27;20619;-60
2023/05/05 09:52:25;;;;;;;4.72;2.85;;;;;;;;;;5161051;27;20050;-60
2023/05/05 09:54:55;;;;;;;6.95;4.03;;;;;;;;;;5165231;27;20055;-58
2023/05/05 09:57:30;;;;;;;5.30;2.70;;;;;;;;;;5163981;27;20090;-59
2023/05/05 09:59:57;;;;;;;6.57;2.88;;;;;;;;;;5155448;27;20133;-60
2023/05/05 10:02:34;;;;;;;7.03;3.40;;;;;;;;;;5154960;27;20075;-60
2023/05/05 10:05:10;;;;;;;8.50;3.70;;;;;;;;;;5137057;27;20513;-58
2023/05/05 10:07:37;;;;;;;6.75;3.50;;;;;;;;;;5154362;27;20524;-60
2023/05/05 10:10:04;;;;;;;8.32;3.47;;;;;;;;;;5156681;27;20047;-57
2023/05/05 10:12:33;;;;;;;6.63;2.83;;;;;;;;;;5143014;27;20050;-60
2023/05/05 10:15:00;;;;;;;4.35;1.40;;;;;;;;;;5153902;27;20055;-60
2023/05/05 10:17:29;;;;;;;3.97;1.00;;;;;;;;;;5153965;27;20177;-60
2023/05/05 10:19:56;;;;;;;3.72;0.82;;;;;;;;;;5154613;27;20536;-59
2023/05/05 10:22:22;;;;;;;4.47;1.00;;;;;;;;;;5156899;27;20059;-60
2023/05/05 10:24:51;;;;;;;7.10;0.93;;;;;;;;;;5157015;27;20050;-59
2023/05/05 10:27:18;;;;;;;2.80;0.98;;;;;;;;;;5155008;27;20122;-59
2023/05/05 10:29:51;;;;;;;1.42;0.52;;;;;;;;;;5156942;27;20103;-59
2023/05/05 10:32:25;;;;;;;2.47;1.02;;;;;;;;;;5155832;27;20101;-60
2023/05/05 10:35:15;;;;;;;1.42;0.88;;;;;;;;;;5155657;27;20823;-59
2023/05/05 10:37:43;;;;;;;2.05;0.90;;;;;;;;;;5154128;27;20483;-61
2023/05/05 10:40:09;;;;;;;3.85;0.98;;;;;;;;;;5153945;27;20536;-60
2023/05/05 10:42:37;;;;;;;1.60;0.90;;;;;;;;;;5157651;27;20566;-60
2023/05/05 10:45:04;;;;;;;1.70;0.80;;;;;;;;;;5162570;27;20069;-60
2023/05/05 10:47:31;;;;;;;3.13;1.13;;;;;;;;;;5147635;27;20047;-60
2023/05/05 10:50:05;;;;;;;1.35;0.70;;;;;;;;;;5147851;27;20051;-59
2023/05/05 10:52:34;;;;;;;1.13;1.00;;;;;;;;;;5147952;27;20116;-58
2023/05/05 10:55:13;;;;;;;2.83;1.20;;;;;;;;;;5154975;27;20477;-59
2023/05/05 10:57:41;;;;;;;1.33;1.23;;;;;;;;;;5167824;27;20095;-60
2023/05/05 11:00:08;;;;;;;5.45;1.45;;;;;;;;;;5166005;27;20057;-59
2023/05/05 11:02:35;;;;;;;3.70;1.50;;;;;;;;;;5167779;27;20054;-59
2023/05/05 11:05:02;;;;;;;6.70;1.77;;;;;;;;;;5167703;27;20057;-59
2023/05/05 11:07:28;;;;;;;7.15;2.35;;;;;;;;;;5166935;27;20512;-58
2023/05/05 11:09:56;;;;;;;4.38;1.65;;;;;;;;;;5166993;27;20043;-57
2023/05/05 11:12:22;;;;;;;4.22;2.42;;;;;;;;;;5168804;27;20138;-57
2023/05/05 11:15:07;;;;;;;5.13;2.75;;;;;;;;;;5168087;27;20047;-57
2023/05/05 11:17:44;;;;;;;3.93;2.30;;;;;;;;;;5166115;27;20051;-59
2023/05/05 11:20:11;;;;;;;4.60;2.17;;;;;;;;;;5167227;27;20081;-58
2023/05/05 11:23:04;;;;;;;5.15;2.85;;;;;;;;;;5170341;27;20532;-57
2023/05/05 11:25:33;;;;;;;9.50;3.03;;;;;;;;;;5128408;27;20043;-58
2023/05/05 11:28:10;;;;;;;5.30;3.53;;;;;;;;;;5168670;27;20050;-57
2023/05/05 11:30:55;;;;;;;8.63;3.08;;;;;;;;;;5160145;27;20500;-57
2023/05/05 11:33:32;;;;;;;7.03;3.63;;;;;;;;;;5168067;27;20496;-59
2023/05/05 11:35:58;;;;;;;;;;;;;;;;;;5165144;27;20062;-56
2023/05/05 11:38:25;;;;;;;8.57;3.70;;;;;;;;;;5161590;27;45871;-58
2023/05/05 11:40:58;;;;;;;9.15;3.65;;;;;;;;;;5167720;27;20124;-58
2023/05/05 11:43:24;;;;;;;10.73;3.78;;;;;;;;;;5166485;27;20051;-55
2023/05/05 11:46:08;;;;;;;10.05;4.47;;;;;;;;;;5167074;27;20069;-56
2023/05/05 11:48:42;;;;;;;11.52;4.50;;;;;;;;;;5166696;27;20056;-57
2023/05/05 11:51:15;;;;;;;8.57;4.90;;;;;;;;;;5168230;27;20512;-58
2023/05/05 11:53:42;;;;;;;9.23;4.25;;;;;;;;;;5165080;27;20098;-58
2023/05/05 11:56:09;;;;;;;6.93;4.20;;;;;;;;;;5167273;27;20074;-57
2023/05/05 11:58:36;;;;;;;7.68;4.95;;;;;;;;;;5164161;27;20111;-56
2023/05/05 12:01:06;;;;;;;6.68;3.78;;;;;;;;;;5165315;27;20050;-57
2023/05/05 12:03:34;;;;;;;8.60;3.90;;;;;;;;;;5159739;27;20497;-57
2023/05/05 12:06:01;;;;;;;10.75;4.70;;;;;;;;;;5149212;27;20135;-57
2023/05/05 12:08:33;;;;;;;7.03;4.60;;;;;;;;;;5167928;27;20660;-56
2023/05/05 12:11:03;;;;;;;10.52;4.28;;;;;;;;;;5166979;27;20146;-57
2023/05/05 12:13:30;;;;;;;10.75;4.35;;;;;;;;;;5162906;27;20501;-58
2023/05/05 12:16:06;;;;;;;7.93;3.58;;;;;;;;;;5148754;27;20324;-57
2023/05/05 12:18:33;;;;;;;7.15;3.80;;;;;;;;;;5158853;27;20047;-55
2023/05/05 12:20:59;;;;;;;7.10;3.20;;;;;;;;;;5149494;27;20055;-58
2023/05/05 12:23:28;;;;;;;5.35;2.90;;;;;;;;;;5142772;27;20188;-59
2023/05/05 12:25:55;;;;;;;7.90;2.97;;;;;;;;;;5152575;27;20141;-57
2023/05/05 12:28:21;;;;;;;4.32;3.00;;;;;;;;;;5161508;27;20056;-58
2023/05/05 12:30:57;;;;;;;5.82;3.35;;;;;;;;;;5162763;27;20069;-59
2023/05/05 12:33:24;;;;;;;6.07;3.45;;;;;;;;;;5159684;27;20504;-59
2023/05/05 12:35:51;;;;;;;3.75;3.35;;;;;;;;;;5167742;27;20138;-57
2023/05/05 12:38:17;;;;;;;6.60;3.55;;;;;;;;;;5162340;27;20078;-57
2023/05/05 12:40:44;;;;;;;4.22;3.47;;;;;;;;;;5160254;27;20573;-58
2023/05/05 12:43:31;;;;;;;4.85;3.20;;;;;;;;;;5160538;27;20387;-58
2023/05/05 12:45:59;;;;;;;4.90;2.88;;;;;;;;;;5163682;27;20057;-57
2023/05/05 12:48:25;;;;;;;5.55;3.03;;;;;;;;;;5150182;27;20100;-56
2023/05/05 12:50:52;;;;;;;6.15;3.50;;;;;;;;;;5151561;27;20143;-57
2023/05/05 12:53:22;;;;;;;5.20;3.40;;;;;;;;;;5137788;27;20628;-56
2023/05/05 12:55:49;;;;;;;7.80;3.95;;;;;;;;;;5162752;27;20054;-56
2023/05/05 12:58:15;;;;;;;10.00;3.65;;;;;;;;;;5158303;27;20127;-58
2023/05/05 13:00:42;;;;;;;7.55;3.90;;;;;;;;;;5163207;27;20057;-55
2023/05/05 13:03:18;;;;;;;7.65;4.57;;;;;;;;;;5158352;27;20433;-57
2023/05/05 13:05:45;;;;;;;6.93;4.47;;;;;;;;;;5153958;27;20054;-58
2023/05/05 13:08:11;;;;;;;5.70;3.90;;;;;;;;;;5160064;27;20130;-57
2023/05/05 13:10:40;;;;;;;10.63;3.63;;;;;;;;;;5155448;27;20181;-58
2023/05/05 13:13:07;;;;;;;5.20;3.90;;;;;;;;;;5153250;27;20047;-57
2023/05/05 13:15:34;;;;;;;7.13;4.93;;;;;;;;;;5161188;27;20054;-57
2023/05/05 13:18:01;;;;;;;8.82;5.38;;;;;;;;;;5164802;27;20046;-57
2023/05/05 13:20:28;;;;;;;7.22;4.97;;;;;;;;;;5153878;27;20047;-58
2023/05/05 13:22:54;;;;;;;8.85;5.40;;;;;;;;;;5129050;27;20618;-54
2023/05/05 13:25:20;;;;;;;12.52;6.38;;;;;;;;;;5162910;27;20091;-58
2023/05/05 13:27:47;;;;;;;8.50;5.57;;;;;;;;;;5164312;27;20555;-57
2023/05/05 13:30:13;;;;;;;10.00;6.25;;;;;;;;;;5162153;27;20129;-57
2023/05/05 13:32:40;;;;;;;11.70;6.25;;;;;;;;;;5149915;27;20047;-59
2023/05/05 13:35:06;;;;;;;7.95;5.93;;;;;;;;;;5163349;27;20580;-56
2023/05/05 13:37:33;;;;;;;12.93;6.30;;;;;;;;;;5161868;27;20055;-56
2023/05/05 13:40:00;;;;;;;6.30;4.72;;;;;;;;;;5143315;27;20058;-56
2023/05/05 13:42:26;;;;;;;6.32;4.13;;;;;;;;;;5160486;27;20054;-58
2023/05/05 13:44:53;;;;;;;5.50;3.00;;;;;;;;;;5156107;27;20211;-58
2023/05/05 13:47:19;;;;;;;4.20;3.50;;;;;;;;;;5161703;27;20130;-56
2023/05/05 13:49:46;;;;;;;5.97;2.50;;;;;;;;;;5156036;27;20051;-57
2023/05/05 13:52:12;;;;;;;5.32;2.58;;;;;;;;;;5159378;27;20142;-57
2023/05/05 13:54:39;;;;;;;3.80;2.30;;;;;;;;;;5158179;27;20397;-56
2023/05/05 13:57:06;;;;;;;2.90;1.90;;;;;;;;;;5156611;27;20055;-59
2023/05/05 13:59:33;;;;;;;2.38;1.65;;;;;;;;;;5165126;27;20569;-55
2023/05/05 14:02:00;;;;;;;2.00;1.73;;;;;;;;;;5158890;27;20061;-57
2023/05/05 14:04:26;;;;;;;2.45;1.88;;;;;;;;;;5157818;27;20070;-56
2023/05/05 14:06:53;;;;;;;4.57;2.60;;;;;;;;;;5156979;27;20569;-56
2023/05/05 14:09:19;;;;;;;2.72;1.80;;;;;;;;;;5161993;27;20551;-57
2023/05/05 14:11:46;;;;;;;3.50;1.85;;;;;;;;;;5145399;27;20051;-57
2023/05/05 14:14:12;;;;;;;2.85;1.55;;;;;;;;;;5162798;27;20055;-56
2023/05/05 14:16:39;;;;;;;2.75;1.42;;;;;;;;;;5155426;27;20138;-57
2023/05/05 14:19:05;;;;;;;3.20;1.98;;;;;;;;;;5164067;27;20046;-58
2023/05/05 14:21:32;;;;;;;3.03;1.65;;;;;;;;;;5154867;27;20051;-56
2023/05/05 14:23:58;;;;;;;2.28;1.40;;;;;;;;;;5158966;27;20588;-58
2023/05/05 14:26:26;;;;;;;4.53;1.60;;;;;;;;;;5155315;27;20061;-58
2023/05/05 14:28:52;;;;;;;4.60;1.85;;;;;;;;;;5166377;27;20106;-58
2023/05/05 14:31:18;;;;;;;4.47;1.70;;;;;;;;;;5161548;27;20047;-57
2023/05/05 14:33:45;;;;;;;2.55;1.27;;;;;;;;;;5159653;27;20111;-54
2023/05/05 14:36:13;;;;;;;4.20;1.77;;;;;;;;;;5158979;27;20566;-59
2023/05/05 14:38:40;;;;;;;2.25;1.48;;;;;;;;;;5159420;27;20147;-57
2023/05/05 14:41:07;;;;;;;3.72;1.98;;;;;;;;;;5162779;27;20051;-56
2023/05/05 14:43:34;;;;;;;3.40;1.38;;;;;;;;;;5157321;27;20133;-60
2023/05/05 14:46:05;;;;;;;2.15;1.30;;;;;;;;;;5157913;27;20136;-58